SBTT

Tabatinga Airport

Tabatinga, Brazil
TAF SBTT 192200Z 2000/2024 06003KT CAVOK TN23/2006Z TX34/2018Z BECMG 2009/2011 06005KT CAVOK BECMG 2015/2017 9999 SCT022 BECMG 2019/2021 CAVOK RMK PFM
Issued Valid From Valid To
Sep-19 @ 22:00 UTC
(3 hours ago)
Sep-20 @ 00:00 UTC
(46 minutes ago)
Sep-21 @ 00:00 UTC
(in 23 hours)
Sep-20 @ 00:00 to Sep-21 @ 00:00
TAF SBTT 192200Z 2000/2024 06003KT CAVOK TN23/2006Z TX34/2018Z
Becoming Sep-20 @ 09:00 to Sep-20 @ 15:00
BECMG 2009/2011 06005KT CAVOK
Wind Visibility Clouds Conditions
60° at 5 knots 10,000+ meters
  • No significant clouds
Becoming Sep-20 @ 15:00 to Sep-20 @ 19:00
BECMG 2015/2017 9999 SCT022
Wind Visibility Clouds Conditions
60° at 5 knots 10,000+ meters
  • Scattered at 2,200' AGL
Becoming Sep-20 @ 19:00 to Sep-21 @ 00:00
BECMG 2019/2021 CAVOK RMK PFM
Wind Visibility Clouds Conditions
60° at 5 knots 10,000+ meters
  • No significant clouds
TAF SBTT 192200Z 2000/2024 06003KT CAVOK TN23/2006Z TX34/2018Z BECMG 2009/2011 06005KT CAVOK BECMG 2015/2017 9999 SCT022 BECMG 2019/2021 CAVOK RMK PFM
Issued Sep-19 @ 22:00 UTC
(3 hours ago)
Valid From Sep-20 @ 00:00 UTC
(46 minutes ago)
Valid To Sep-21 @ 00:00 UTC
(in 23 hours)
Sep-20 @ 00:00 - Sep-21 @ 00:00
Becoming Sep-20 @ 09:00 - Sep-20 @ 15:00
Wind Visibility
60° at 5 knots 10,000+ meters
Clouds
  • No significant clouds
Conditions
Becoming Sep-20 @ 15:00 - Sep-20 @ 19:00
Wind Visibility
60° at 5 knots 10,000+ meters
Clouds
  • Scattered at 2,200' AGL
Conditions
Becoming Sep-20 @ 19:00 - Sep-21 @ 00:00
Wind Visibility
60° at 5 knots 10,000+ meters
Clouds
  • No significant clouds
Conditions